Time;durP1;ratioP1;P1;durP2;ratioP2;P2;SDS_P1;SDS_P2;PMS_P1;PMS_P2;Temp;Humidity;BMP_temperature;BMP_pressure;BME280_temperature;BME280_humidity;BME280_pressure;Samples;Min_cycle;Max_cycle;Signal;HPM_P1;HPM_P2
2022/06/23 00:00:00;;;;;;;5.65;3.17;;;18.00;99.90;;;;;;12352537;28;20062;-80
2022/06/23 00:06:06;;;;;;;8.23;3.10;;;17.80;99.90;;;;;;12337066;28;20189;-80
2022/06/23 00:12:23;;;;;;;6.70;3.13;;;17.80;99.90;;;;;;12376949;28;20407;-80
2022/06/23 00:18:30;;;;;;;6.38;3.13;;;17.80;99.90;;;;;;12374866;28;20088;-80
2022/06/23 00:24:33;;;;;;;8.73;3.45;;;17.60;99.90;;;;;;12353003;28;20054;-81
2022/06/23 00:30:40;;;;;;;9.05;3.17;;;17.50;99.90;;;;;;12367258;28;20085;-81
2022/06/23 00:36:59;;;;;;;7.40;3.35;;;17.40;99.90;;;;;;12360958;28;20162;-80
2022/06/23 00:43:03;;;;;;;5.00;2.83;;;17.50;99.90;;;;;;12367024;28;20042;-80
2022/06/23 00:49:33;;;;;;;10.10;3.20;;;17.40;99.90;;;;;;12374868;28;20069;-80
2022/06/23 00:55:35;;;;;;;6.22;3.10;;;17.30;99.90;;;;;;12386401;28;20109;-80
2022/06/23 01:02:13;;;;;;;8.15;2.92;;;17.40;99.90;;;;;;12405186;28;20042;-80
2022/06/23 01:08:28;;;;;;;5.35;2.88;;;17.40;99.90;;;;;;12371698;28;20144;-80
2022/06/23 01:14:47;;;;;;;7.40;3.00;;;17.30;99.90;;;;;;12374642;28;20557;-80
2022/06/23 01:21:04;;;;;;;10.40;4.22;;;17.30;99.90;;;;;;12371386;28;20181;-80
2022/06/23 01:27:19;;;;;;;6.40;3.13;;;17.30;99.90;;;;;;12372459;28;20106;-80
2022/06/23 01:33:38;;;;;;;5.72;3.28;;;17.10;99.90;;;;;;12365698;28;20482;-80
2022/06/23 01:39:56;;;;;;;7.18;2.83;;;17.10;99.90;;;;;;12377023;28;20133;-81
2022/06/23 01:46:08;;;;;;;7.47;3.22;;;17.00;99.90;;;;;;12367687;28;20046;-81
2022/06/23 01:52:15;;;;;;;5.32;2.90;;;17.00;99.90;;;;;;12370287;28;20490;-80
2022/06/23 01:58:20;;;;;;;8.00;3.28;;;16.90;99.90;;;;;;12386801;28;20049;-81
2022/06/23 02:04:32;;;;;;;8.25;3.30;;;17.10;99.90;;;;;;12386875;28;20109;-81
2022/06/23 02:10:47;;;;;;;9.02;3.58;;;17.00;99.90;;;;;;12364764;28;20092;-80
2022/06/23 02:17:18;;;;;;;6.15;3.13;;;16.90;99.90;;;;;;12376292;28;20109;-81
2022/06/23 02:23:26;;;;;;;7.38;3.13;;;16.70;99.90;;;;;;12362073;28;20442;-80
2022/06/23 02:29:42;;;;;;;7.18;3.65;;;16.60;99.90;;;;;;12380154;28;20050;-81
2022/06/23 02:35:58;;;;;;;8.27;4.00;;;16.50;99.90;;;;;;12359493;28;20054;-81
2022/06/23 02:42:05;;;;;;;5.68;3.00;;;16.40;99.90;;;;;;12377139;28;20073;-81
2022/06/23 02:48:14;;;;;;;7.07;3.20;;;16.40;99.90;;;;;;12373431;28;20050;-80
2022/06/23 02:54:21;;;;;;;5.85;4.00;;;16.30;99.90;;;;;;12369407;28;20120;-81
2022/06/23 03:00:56;;;;;;;6.13;3.40;;;16.20;99.90;;;;;;12369524;28;20372;-80
2022/06/23 03:07:33;;;;;;;8.57;3.28;;;16.20;99.90;;;;;;12363448;28;20462;-81
2022/06/23 03:13:57;;;;;;;10.10;3.47;;;16.30;99.90;;;;;;12347668;28;20104;-81
2022/06/23 03:20:12;;;;;;;7.43;3.53;;;16.30;99.90;;;;;;12356173;28;20086;-80
2022/06/23 03:26:21;;;;;;;4.90;3.35;;;16.10;99.90;;;;;;12348857;28;20046;-80
2022/06/23 03:32:40;;;;;;;5.28;3.13;;;16.00;99.90;;;;;;12363149;28;20039;-81
2022/06/23 03:45:32;;;;;;;4.13;3.03;;;16.00;99.90;;;;;;12374790;28;20142;-81
2022/06/23 03:51:38;;;;;;;5.32;3.13;;;16.00;99.90;;;;;;12360652;28;20172;-80
2022/06/23 03:58:03;;;;;;;5.82;3.22;;;16.10;99.90;;;;;;12365579;28;20105;-81
2022/06/23 04:04:18;;;;;;;6.35;3.38;;;15.80;99.90;;;;;;12360642;28;20085;-81
2022/06/23 04:10:31;;;;;;;8.00;4.13;;;15.70;99.90;;;;;;12375776;28;20418;-80
2022/06/23 04:16:41;;;;;;;6.07;3.45;;;15.70;99.90;;;;;;12377259;28;20058;-80
2022/06/23 04:23:00;;;;;;;5.95;3.42;;;15.70;99.90;;;;;;12357917;28;20539;-81
2022/06/23 04:29:22;;;;;;;9.48;3.90;;;15.80;99.90;;;;;;12362882;28;20085;-80
2022/06/23 04:35:31;;;;;;;6.35;3.53;;;15.70;99.90;;;;;;12368493;28;20105;-81
2022/06/23 04:41:42;;;;;;;5.75;3.70;;;15.70;99.90;;;;;;12351686;28;20042;-81
2022/06/23 04:47:45;;;;;;;7.78;4.00;;;15.80;99.90;;;;;;12371442;28;20054;-80
2022/06/23 04:53:58;;;;;;;9.20;3.85;;;15.90;99.90;;;;;;12384751;28;20403;-80
2022/06/23 05:00:03;;;;;;;11.80;4.35;;;16.00;99.90;;;;;;12385546;28;20137;-80
2022/06/23 05:06:12;;;;;;;6.40;3.80;;;16.00;99.90;;;;;;12384247;28;20054;-80
2022/06/23 05:12:24;;;;;;;10.27;3.67;;;16.10;99.90;;;;;;12384664;28;20043;-81
2022/06/23 05:18:48;;;;;;;6.57;4.32;;;16.20;99.90;;;;;;12361361;28;20189;-81
2022/06/23 05:24:52;;;;;;;4.67;3.10;;;16.20;99.90;;;;;;12382310;28;20058;-81
2022/06/23 05:30:58;;;;;;;10.10;3.90;;;16.30;99.90;;;;;;12375074;28;20465;-80
2022/06/23 05:37:24;;;;;;;7.10;3.78;;;16.30;99.90;;;;;;12392801;28;20111;-80
2022/06/23 05:43:26;;;;;;;9.93;3.80;;;16.40;99.90;;;;;;12384335;28;20109;-81
2022/06/23 05:49:40;;;;;;;6.40;3.53;;;16.50;99.90;;;;;;12375320;28;20078;-81
2022/06/23 05:55:50;;;;;;;8.90;3.17;;;16.60;99.90;;;;;;12370380;28;20038;-81
2022/06/23 06:02:10;;;;;;;6.70;3.47;;;16.70;99.90;;;;;;12366178;28;20077;-80
2022/06/23 06:08:16;;;;;;;5.25;3.15;;;16.80;99.90;;;;;;12375630;28;20058;-80
2022/06/23 06:14:23;;;;;;;5.10;3.42;;;17.00;99.90;;;;;;12384315;28;20518;-80
2022/06/23 06:20:27;;;;;;;5.38;3.10;;;17.00;99.90;;;;;;12373942;28;20096;-81
2022/06/23 06:26:37;;;;;;;8.90;3.30;;;17.10;99.90;;;;;;12371845;28;20072;-80
2022/06/23 06:32:39;;;;;;;4.78;2.83;;;17.20;99.90;;;;;;12387637;28;20038;-80
2022/06/23 06:38:41;;;;;;;5.57;3.10;;;17.40;99.90;;;;;;12369585;28;20077;-80
2022/06/23 06:44:48;;;;;;;4.82;2.75;;;17.50;99.90;;;;;;12355839;28;20042;-81
2022/06/23 06:50:59;;;;;;;7.50;2.88;;;17.70;99.90;;;;;;12364239;28;20102;-80
2022/06/23 06:57:04;;;;;;;6.80;2.80;;;18.00;99.90;;;;;;12366298;28;20078;-80
2022/06/23 07:03:09;;;;;;;5.28;2.80;;;18.00;99.90;;;;;;12376854;28;20077;-80
2022/06/23 07:09:30;;;;;;;5.30;2.70;;;18.20;99.90;;;;;;12384510;28;20172;-81
2022/06/23 07:15:43;;;;;;;8.18;2.70;;;18.30;99.90;;;;;;12350365;28;20042;-80
2022/06/23 07:22:03;;;;;;;4.07;2.30;;;18.60;99.90;;;;;;12375785;28;20658;-82
2022/06/23 07:28:16;;;;;;;5.50;2.63;;;18.70;99.90;;;;;;12364775;28;20441;-80
2022/06/23 07:34:21;;;;;;;6.47;2.00;;;19.20;99.90;;;;;;12357235;28;20046;-81
2022/06/23 07:40:24;;;;;;;4.70;2.30;;;19.70;99.90;;;;;;12396679;28;20178;-82
2022/06/23 07:46:27;;;;;;;5.38;2.55;;;20.00;99.90;;;;;;12390934;28;20053;-81
2022/06/23 07:52:29;;;;;;;5.30;2.47;;;20.00;99.90;;;;;;12391145;28;20057;-81
2022/06/23 07:58:34;;;;;;;6.53;2.15;;;20.30;99.90;;;;;;12372358;28;20101;-82
2022/06/23 08:04:58;;;;;;;5.40;1.80;;;20.90;99.90;;;;;;12360382;28;20077;-81
2022/06/23 08:17:23;;;;;;;5.80;1.70;;;21.40;99.90;;;;;;12367176;28;20063;-82
2022/06/23 08:23:29;;;;;;;4.70;1.50;;;21.30;99.90;;;;;;12355261;28;20129;-82
2022/06/23 08:29:39;;;;;;;3.92;1.55;;;22.00;99.90;;;;;;12342430;28;20070;-81
2022/06/23 08:35:48;;;;;;;7.75;1.45;;;22.60;99.90;;;;;;12365175;28;20043;-83
2022/06/23 08:41:58;;;;;;;7.05;1.63;;;23.10;99.90;;;;;;12364658;28;20419;-82
2022/06/23 08:48:22;;;;;;;4.25;1.33;;;23.20;99.90;;;;;;12357131;28;20078;-82
2022/06/23 08:54:42;;;;;;;6.20;1.35;;;23.40;99.90;;;;;;12355604;28;20107;-83
2022/06/23 09:01:00;;;;;;;2.25;1.33;;;23.90;99.90;;;;;;12353402;28;20129;-82
2022/06/23 09:07:24;;;;;;;6.43;1.30;;;24.00;99.90;;;;;;12368625;28;20134;-82
2022/06/23 09:13:54;;;;;;;3.92;1.10;;;24.30;99.90;;;;;;12358558;28;20039;-82
2022/06/23 09:20:25;;;;;;;4.47;1.17;;;24.50;99.90;;;;;;12388228;28;20121;-82
2022/06/23 09:26:45;;;;;;;5.93;1.27;;;24.90;99.90;;;;;;12339111;28;20112;-82
2022/06/23 09:33:10;;;;;;;4.43;1.30;;;25.10;99.90;;;;;;12367934;28;20498;-82
2022/06/23 09:39:24;;;;;;;3.30;1.40;;;25.40;99.90;;;;;;12385596;28;20096;-83
2022/06/23 09:45:48;;;;;;;2.90;1.20;;;25.60;99.90;;;;;;12372864;28;20133;-82
2022/06/23 09:52:11;;;;;;;4.50;1.20;;;25.70;99.90;;;;;;12406169;28;20050;-83
2022/06/23 09:58:20;;;;;;;2.90;1.20;;;25.80;99.90;;;;;;12387198;28;20157;-83
2022/06/23 10:04:43;;;;;;;2.35;1.17;;;25.90;99.90;;;;;;12367530;28;20126;-82
2022/06/23 10:11:02;;;;;;;4.27;1.20;;;26.10;99.90;;;;;;12363342;28;20185;-82
2022/06/23 10:17:21;;;;;;;2.70;1.10;;;26.60;99.90;;;;;;12379678;28;20495;-83
2022/06/23 10:24:21;;;;;;;5.28;1.40;;;26.80;99.90;;;;;;12370654;28;20084;-83
2022/06/23 10:30:59;;;;;;;1.83;1.15;;;26.90;99.90;;;;;;12347247;28;20066;-82
2022/06/23 10:37:25;;;;;;;3.70;1.30;;;27.50;99.90;;;;;;12364502;28;20057;-82
2022/06/23 10:43:49;;;;;;;8.57;1.55;;;27.20;99.90;;;;;;12360991;28;20039;-82
2022/06/23 10:50:18;;;;;;;3.30;1.10;;;27.20;99.90;;;;;;12374264;28;20532;-83
2022/06/23 10:57:01;;;;;;;2.83;1.30;;;27.70;99.90;;;;;;12381674;28;20055;-82
2022/06/23 11:03:25;;;;;;;2.97;1.30;;;27.60;99.90;;;;;;12383974;28;20466;-82
2022/06/23 11:09:44;;;;;;;2.63;0.95;;;27.90;99.90;;;;;;12374296;28;20089;-82
2022/06/23 11:16:09;;;;;;;2.17;1.10;;;28.20;99.90;;;;;;12385971;28;20383;-82
2022/06/23 11:22:19;;;;;;;3.15;1.20;;;28.20;99.90;;;;;;12381511;28;20131;-82
2022/06/23 11:28:49;;;;;;;1.73;1.00;;;28.20;99.90;;;;;;12404647;28;20042;-83
2022/06/23 11:35:12;;;;;;;1.88;1.00;;;28.50;99.90;;;;;;12378613;28;20453;-82
2022/06/23 11:41:44;;;;;;;3.42;1.17;;;28.30;99.90;;;;;;12365483;28;20517;-82
2022/06/23 11:48:13;;;;;;;4.88;1.23;;;28.30;99.90;;;;;;12342632;28;20181;-82
2022/06/23 11:54:42;;;;;;;3.20;1.23;;;28.20;99.90;;;;;;12372221;28;20046;-83
2022/06/23 12:01:11;;;;;;;2.33;1.27;;;28.70;99.90;;;;;;12367482;28;20093;-82
2022/06/23 12:07:38;;;;;;;6.53;1.20;;;29.30;99.90;;;;;;12371156;28;20590;-83
2022/06/23 12:13:40;;;;;;;1.98;0.90;;;29.40;99.90;;;;;;12358042;28;20104;-82
2022/06/23 12:19:53;;;;;;;3.08;1.05;;;29.00;99.90;;;;;;12364593;28;20054;-82
2022/06/23 12:26:19;;;;;;;3.90;1.30;;;29.10;99.90;;;;;;12355613;28;20124;-83
2022/06/23 12:32:31;;;;;;;2.42;1.10;;;29.00;99.90;;;;;;12369028;28;20073;-83
2022/06/23 12:38:48;;;;;;;3.28;1.00;;;28.90;99.90;;;;;;12380487;28;20061;-83
2022/06/23 12:45:33;;;;;;;6.97;1.25;;;29.60;99.90;;;;;;12370459;28;20125;-83
2022/06/23 12:52:01;;;;;;;3.00;1.13;;;29.50;99.90;;;;;;12392837;28;20058;-83
2022/06/23 12:58:31;;;;;;;3.83;1.08;;;29.10;99.90;;;;;;12360924;28;20046;-83
2022/06/23 13:04:52;;;;;;;4.07;1.08;;;28.90;99.90;;;;;;12367867;28;20495;-84
2022/06/23 13:10:58;;;;;;;1.60;0.90;;;28.90;99.90;;;;;;12376110;28;20129;-83
2022/06/23 13:17:21;;;;;;;3.65;0.90;;;29.50;99.90;;;;;;12388895;28;20050;-84
2022/06/23 13:23:49;;;;;;;2.30;1.00;;;29.80;99.90;;;;;;12376866;28;20484;-83
2022/06/23 13:29:57;;;;;;;5.65;0.90;;;30.10;99.90;;;;;;12359615;28;20046;-82
2022/06/23 13:36:05;;;;;;;2.05;1.00;;;30.30;99.90;;;;;;12380864;28;20457;-82
2022/06/23 13:42:31;;;;;;;1.92;1.00;;;30.40;99.90;;;;;;12379026;28;20054;-83
2022/06/23 13:49:00;;;;;;;2.35;0.90;;;30.30;99.90;;;;;;12367025;28;20053;-84
2022/06/23 13:55:16;;;;;;;3.15;0.90;;;30.30;99.90;;;;;;12388368;28;20117;-86
2022/06/23 14:01:29;;;;;;;1.52;0.82;;;30.40;99.90;;;;;;12387740;28;20126;-83
2022/06/23 14:07:41;;;;;;;2.45;0.60;;;30.40;99.90;;;;;;12404462;28;20081;-83
2022/06/23 14:13:56;;;;;;;;;;;30.20;99.90;;;;;;12379062;28;20557;-83
2022/06/23 14:20:04;;;;;;;2.47;0.90;;;30.30;99.90;;;;;;12381194;28;19976;-83
2022/06/23 14:26:11;;;;;;;2.30;0.80;;;30.50;99.10;;;;;;12364427;28;20171;-85
2022/06/23 14:32:30;;;;;;;1.80;0.90;;;30.50;99.50;;;;;;12377055;28;20074;-83
2022/06/23 14:38:45;;;;;;;2.83;1.05;;;30.40;99.50;;;;;;12385663;28;20192;-84
2022/06/23 14:45:20;;;;;;;3.70;0.80;;;30.20;97.10;;;;;;12363639;28;20581;-83
2022/06/23 14:51:35;;;;;;;1.10;0.70;;;30.20;98.30;;;;;;12382871;28;20442;-83
2022/06/23 14:57:58;;;;;;;2.78;0.60;;;29.80;96.70;;;;;;12360416;28;20054;-84
2022/06/23 15:04:08;;;;;;;;;;;29.80;94.50;;;;;;12362486;28;20042;-83
2022/06/23 15:10:29;;;;;;;1.90;0.77;;;29.60;93.80;;;;;;12361225;28;20313;-83
2022/06/23 15:16:34;;;;;;;1.67;0.70;;;29.60;93.00;;;;;;12370574;28;20047;-84
2022/06/23 15:29:18;;;;;;;1.38;0.80;;;29.60;92.50;;;;;;12385610;28;20180;-83
2022/06/23 15:35:36;;;;;;;5.97;0.90;;;29.60;95.80;;;;;;12357817;28;20093;-83
2022/06/23 15:41:56;;;;;;;1.88;0.93;;;29.60;96.00;;;;;;12358151;28;20134;-84
2022/06/23 15:48:06;;;;;;;2.08;1.10;;;29.60;95.10;;;;;;12372083;28;20864;-84
2022/06/23 15:54:23;;;;;;;1.60;0.80;;;29.80;98.80;;;;;;12388205;28;20069;-84
2022/06/23 16:00:47;;;;;;;2.55;0.90;;;29.90;95.50;;;;;;12366521;28;20054;-83
2022/06/23 16:06:54;;;;;;;3.03;0.82;;;29.70;95.50;;;;;;12381071;28;20125;-83
2022/06/23 16:12:57;;;;;;;1.90;1.00;;;29.90;95.40;;;;;;12373733;28;20050;-84
2022/06/23 16:19:23;;;;;;;1.45;0.80;;;29.70;94.70;;;;;;12362815;28;20054;-83
2022/06/23 16:25:45;;;;;;;2.75;1.10;;;29.60;95.90;;;;;;12366336;28;20141;-83
2022/06/23 16:32:04;;;;;;;3.43;1.10;;;29.60;95.90;;;;;;12367750;28;20046;-83
2022/06/23 16:38:12;;;;;;;2.05;0.80;;;29.60;97.30;;;;;;12358561;28;20125;-83
2022/06/23 16:44:38;;;;;;;2.63;1.30;;;29.70;97.70;;;;;;12349458;28;20158;-83
2022/06/23 16:50:46;;;;;;;3.22;1.15;;;29.60;97.10;;;;;;12381438;28;20125;-83
2022/06/23 16:56:57;;;;;;;1.70;1.00;;;29.70;98.50;;;;;;12364722;28;20422;-83
2022/06/23 17:03:12;;;;;;;3.28;1.00;;;29.80;95.90;;;;;;12356163;28;20102;-83
2022/06/23 17:09:36;;;;;;;2.83;1.23;;;29.90;98.00;;;;;;12361729;28;20047;-83
2022/06/23 17:15:50;;;;;;;2.55;1.20;;;29.60;97.90;;;;;;12376378;28;20082;-83
2022/06/23 17:22:06;;;;;;;2.60;1.15;;;29.70;99.90;;;;;;12370447;28;20055;-83
2022/06/23 17:28:36;;;;;;;3.83;1.02;;;29.60;97.10;;;;;;12374113;28;20051;-83
2022/06/23 17:34:49;;;;;;;4.38;1.17;;;29.50;96.60;;;;;;12362033;28;20038;-83
2022/06/23 17:47:49;;;;;;;2.90;1.00;;;29.10;98.30;;;;;;12385515;28;20081;-82
2022/06/23 17:54:03;;;;;;;4.10;1.17;;;29.00;97.00;;;;;;12386352;28;20046;-82
2022/06/23 18:00:30;;;;;;;3.70;1.10;;;28.80;97.40;;;;;;12379977;28;20047;-82
2022/06/23 18:06:34;;;;;;;3.15;1.20;;;29.00;97.90;;;;;;12367282;28;20197;-82
2022/06/23 18:12:53;;;;;;;3.35;1.10;;;28.90;97.60;;;;;;12375969;28;20082;-82
2022/06/23 18:19:20;;;;;;;2.80;1.23;;;28.80;98.00;;;;;;12347456;28;20104;-82
2022/06/23 18:25:33;;;;;;;2.90;1.02;;;28.60;97.50;;;;;;12334692;28;20197;-82
2022/06/23 18:31:43;;;;;;;2.47;1.10;;;28.10;97.70;;;;;;12341072;28;20138;-83
2022/06/23 18:37:58;;;;;;;2.08;1.20;;;27.80;97.90;;;;;;12337604;28;20130;-82
2022/06/23 18:44:10;;;;;;;5.75;1.30;;;27.60;96.80;;;;;;12322625;28;20070;-82
2022/06/23 18:50:20;;;;;;;2.22;1.23;;;27.40;97.90;;;;;;12324365;28;20531;-82
2022/06/23 18:56:42;;;;;;;7.15;1.52;;;27.20;97.80;;;;;;12333659;28;20063;-82
2022/06/23 19:02:52;;;;;;;3.13;1.40;;;27.00;98.00;;;;;;12323702;28;20459;-82
2022/06/23 19:08:59;;;;;;;2.50;1.45;;;26.80;99.60;;;;;;12322766;28;20120;-82
2022/06/23 19:15:12;;;;;;;3.08;1.45;;;26.60;99.90;;;;;;12330972;28;20098;-81
2022/06/23 19:21:23;;;;;;;5.40;1.35;;;26.50;99.90;;;;;;12362280;28;20100;-82
2022/06/23 19:27:47;;;;;;;5.93;1.33;;;26.40;99.90;;;;;;12363601;28;20138;-82
2022/06/23 19:33:52;;;;;;;4.20;1.45;;;26.20;99.90;;;;;;12352233;28;20142;-81
2022/06/23 19:40:06;;;;;;;7.40;1.50;;;26.00;99.90;;;;;;12394338;28;20684;-81
2022/06/23 19:46:22;;;;;;;5.25;1.50;;;25.90;99.90;;;;;;12377056;28;20517;-82
2022/06/23 19:52:33;;;;;;;3.08;1.40;;;25.80;99.90;;;;;;12378961;28;20038;-82
2022/06/23 19:59:03;;;;;;;3.08;1.40;;;25.70;99.90;;;;;;12407925;28;20090;-82
2022/06/23 20:05:30;;;;;;;3.65;1.63;;;25.60;99.90;;;;;;12377321;28;20910;-82
2022/06/23 20:11:48;;;;;;;6.93;1.40;;;25.50;99.90;;;;;;12377696;28;20046;-82
2022/06/23 20:17:50;;;;;;;8.48;1.60;;;25.40;99.90;;;;;;12364370;28;20108;-82
2022/06/23 20:24:14;;;;;;;5.32;1.75;;;25.10;99.90;;;;;;12378095;28;20077;-82
2022/06/23 20:30:26;;;;;;;4.72;1.40;;;25.00;99.90;;;;;;12379226;28;20479;-82
2022/06/23 20:36:43;;;;;;;3.43;1.43;;;24.90;99.90;;;;;;12355247;28;20410;-82
2022/06/23 20:43:27;;;;;;;5.22;1.20;;;25.00;99.90;;;;;;12381377;28;20613;-82
2022/06/23 20:49:38;;;;;;;3.90;1.48;;;24.70;99.90;;;;;;12374600;28;20092;-81
2022/06/23 20:55:48;;;;;;;2.88;1.40;;;24.50;99.90;;;;;;12372029;28;20052;-81
2022/06/23 21:02:15;;;;;;;5.15;1.40;;;24.40;99.90;;;;;;12380082;28;20046;-82
2022/06/23 21:08:26;;;;;;;3.47;1.55;;;24.30;99.90;;;;;;12376396;28;20401;-82
2022/06/23 21:14:41;;;;;;;7.47;1.40;;;24.30;99.90;;;;;;12360536;28;20474;-82
2022/06/23 21:20:57;;;;;;;3.97;1.40;;;24.20;99.90;;;;;;12391027;28;20161;-81
2022/06/23 21:27:30;;;;;;;4.03;1.50;;;24.10;99.90;;;;;;12370205;28;20050;-82
2022/06/23 21:33:39;;;;;;;3.30;1.48;;;24.10;99.90;;;;;;12405972;28;20129;-82
2022/06/23 21:39:49;;;;;;;5.18;1.40;;;24.00;99.90;;;;;;12377409;28;20042;-81
2022/06/23 21:45:56;;;;;;;2.58;1.60;;;24.00;99.90;;;;;;12356148;28;20038;-81
2022/06/23 21:52:20;;;;;;;1.88;1.20;;;23.90;99.90;;;;;;12370172;28;20138;-81
2022/06/23 21:58:52;;;;;;;3.70;1.40;;;23.90;99.90;;;;;;12369602;28;20054;-81
2022/06/23 22:05:09;;;;;;;4.75;1.33;;;23.80;99.90;;;;;;12373213;28;20189;-81
2022/06/23 22:11:21;;;;;;;3.42;1.70;;;23.70;99.90;;;;;;12379542;28;20082;-82
2022/06/23 22:17:23;;;;;;;2.10;1.40;;;23.80;99.90;;;;;;12369755;28;20665;-82
2022/06/23 22:26:05;;;;;;;3.13;1.52;;;23.70;99.90;;;;;;12370274;28;20570;-82
2022/06/23 22:30:39;;;;;;;3.42;1.40;;;23.90;99.90;;;;;;12386884;28;20450;-82
2022/06/23 22:36:43;;;;;;;3.78;1.50;;;23.80;99.90;;;;;;12347526;28;20183;-82
2022/06/23 22:42:57;;;;;;;3.20;1.60;;;23.70;99.90;;;;;;12377568;28;20193;-82
2022/06/23 22:49:25;;;;;;;4.25;1.48;;;23.60;99.90;;;;;;12366088;28;20050;-82
2022/06/23 22:55:29;;;;;;;2.38;1.70;;;23.60;99.90;;;;;;12384534;28;20133;-82
2022/06/23 23:01:59;;;;;;;4.05;1.45;;;23.60;99.90;;;;;;12377405;28;21424;-82
2022/06/23 23:08:17;;;;;;;3.90;1.80;;;23.50;99.90;;;;;;12394498;28;20148;-82
2022/06/23 23:14:36;;;;;;;4.97;1.58;;;23.30;99.90;;;;;;12385556;28;20129;-81
2022/06/23 23:21:23;;;;;;;4.13;1.48;;;23.20;99.90;;;;;;12367892;28;20065;-81
2022/06/23 23:27:25;;;;;;;4.05;1.77;;;23.20;99.90;;;;;;12368542;28;20062;-82
2022/06/23 23:33:36;;;;;;;2.80;1.65;;;23.20;99.90;;;;;;12381054;28;20133;-81
2022/06/23 23:39:54;;;;;;;4.47;1.60;;;23.20;99.90;;;;;;12360820;28;20069;-82
2022/06/23 23:45:57;;;;;;;5.60;1.85;;;23.20;99.90;;;;;;12352646;28;20097;-81
2022/06/23 23:51:59;;;;;;;4.97;1.60;;;23.20;99.90;;;;;;12378083;28;20104;-82
2022/06/23 23:58:02;;;;;;;2.72;1.42;;;23.30;99.90;;;;;;12374310;28;20189;-81
